ADDS METAR Data INFO
IDs: Format: Raw Decoded Include TAF

Data at: 1333 UTC 23 Jun 2018

KTQE 231312Z AUTO 21005KT 8SM FEW003 SCT120 17/17 A2980 RMK AO2 T01720167
KTQE 231254Z AUTO 16003KT 8SM BKN120 17/16 A2980 RMK AO2 SLP080 T01670161
KTQE 231154Z AUTO 26003KT 6SM BR CLR 16/16 A2980 RMK AO2 SLP081 T01610156 10167 20150 53002
KTQE 231054Z AUTO 00000KT 9SM CLR 15/15 A2979 RMK AO2 SLP077 T01500150
KTQE 230954Z AUTO 00000KT 10SM BKN055 16/15 A2978 RMK AO2 SLP074 T01560150
KTQE 230854Z AUTO 00000KT 9SM CLR 15/15 A2979 RMK AO2 SLP079 T01500150 58008
KTQE 230754Z AUTO 28003KT 10SM CLR 16/15 A2981 RMK AO2 SLP084 T01560150
KTQE 230654Z AUTO 00000KT 10SM CLR 16/16 A2981 RMK AO2 SLP084 T01610156
KTQE 230554Z AUTO 00000KT 10SM CLR 17/16 A2982 RMK AO2 SLP088 T01670161 10233 20167 402440156 50010
KTQE 230454Z AUTO 00000KT 10SM CLR 17/17 A2982 RMK AO2 SLP089 T01720167
KTQE 230354Z AUTO 00000KT 10SM CLR 18/17 A2983 RMK AO2 SLP091 T01780172
KTQE 230254Z AUTO 00000KT 10SM CLR 19/18 A2979 RMK AO2 SLP078 T01890178 55007
KTQE 230154Z AUTO 10005KT 10SM CLR 20/18 A2978 RMK AO2 SLP075 T02000178
KTQE 230054Z AUTO 00000KT 10SM FEW037 OVC055 23/16 A2981 RMK AO2 SLP086 T02280161
KTQE 222354Z AUTO 08003KT 10SM OVC036 23/16 A2981 RMK AO2 SLP084 T02330161 10244 20206 56013
KTQE 222254Z AUTO 00000KT 10SM SCT060 24/16 A2981 RMK AO2 SLP085 T02390161
KTQE 222154Z AUTO VRB04KT 10SM SCT038 BKN050 24/16 A2984 RMK AO2 SLP094 T02390156
KTQE 222054Z AUTO 15005KT 10SM SCT038 23/15 A2985 RMK AO2 SLP097 T02330150 56021
KTQE 221954Z AUTO 11007KT 10SM CLR 23/16 A2986 RMK AO2 SLP100 T02280161
KTQE 221854Z AUTO 09004KT 10SM FEW028 OVC055 22/16 A2989 RMK AO2 SLP113 T02170156
KTQE 221754Z AUTO 00000KT 10SM SCT029 OVC043 21/15 A2991 RMK AO2 SLP120 60000 T02060150 10206 20161 56004
KTQE 221654Z AUTO 06007KT 10SM FEW020 OVC035 20/16 A2991 RMK AO2 SLP121 T02000156
KTQE 221615Z AUTO 06009KT 10SM FEW019 SCT027 BKN032 19/16 A2991 RMK AO2 T01890156
KTQE 221554Z AUTO 02006KT 10SM BKN021 OVC027 18/16 A2992 RMK AO2 RAB02E17 SLP122 P0000 T01830156
KTQE 221454Z AUTO 35007KT 10SM SCT017 OVC027 17/15 A2992 RMK AO2 SLP125 T01720150 51010
KTQE 221354Z AUTO 35009KT 10SM OVC016 17/14 A2992 RMK AO2 SLP124 T01670144
KTQE 221254Z AUTO 02009KT 10SM SCT019 OVC029 17/14 A2990 RMK AO2 SLP116 T01670144
KTQE 221154Z AUTO 01009KT 10SM OVC017 16/14 A2989 RMK AO2 SLP114 70005 T01610139 10172 20156 53002
KTQE 221054Z AUTO 03013KT 10SM BKN018 OVC025 16/13 A2989 RMK AO2 SLP111 T01560133
KTQE 220954Z AUTO 36011KT 10SM BKN017 OVC023 17/15 A2987 RMK AO2 SLP108 T01670150
KTQE 220854Z AUTO 34009KT 10SM BKN022 OVC027 17/16 A2989 RMK AO2 SLP112 T01670156 50000
KTQE 220754Z AUTO 31006KT 10SM OVC016 17/16 A2990 RMK AO2 SLP115 T01670156
KTQE 220752Z AUTO 31006KT 10SM OVC016 17/16 A2990 RMK AO2
KTQE 220712Z AUTO 32005KT 10SM OVC014 17/16 A2989 RMK AO2 T01670156
KTQE 220654Z AUTO 34004KT 10SM OVC015 17/16 A2989 RMK AO2 SLP111 T01720156
KTQE 220635Z AUTO 36004KT 10SM BKN016 OVC041 17/16 A2988 RMK AO2 T01720156
KTQE 220619Z AUTO 01003KT 10SM SCT021 OVC041 17/16 A2988 RMK AO2 T01670156
KTQE 220554Z AUTO 04006KT 10SM SCT013 OVC021 17/15 A2989 RMK AO2 SLP111 T01670150 10194 20167 402220156 50000
KTQE 220512Z AUTO 02008KT 10SM OVC014 17/16 A2989 RMK AO2 T01720156
KTQE 220454Z AUTO 02009KT 10SM BKN017 OVC022 17/15 A2989 RMK AO2 SLP114 T01720150
KTQE 220354Z AUTO 03010KT 10SM OVC016 17/16 A2990 RMK AO2 SLP117 T01720156
KTQE 220254Z AUTO 03011KT 10SM OVC018 18/16 A2989 RMK AO2 SLP112 T01780156 51011
KTQE 220223Z AUTO 02010KT 10SM BKN013 OVC019 18/16 A2987 RMK AO2 T01830161
KTQE 220154Z AUTO 01013G22KT 10SM OVC018 18/16 A2986 RMK AO2 SLP103 T01830161